Time;durP1;ratioP1;P1;durP2;ratioP2;P2;SDS_P1;SDS_P2;PMS_P1;PMS_P2;Temp;Humidity;BMP_temperature;BMP_pressure;BME280_temperature;BME280_humidity;BME280_pressure;Samples;Min_cycle;Max_cycle;Signal;HPM_P1;HPM_P2
2024/02/09 00:00:12;;;;;;;38.90;17.85;;;;;;;7.87;58.48;99059.72;5031311;28;20029;-39
2024/02/09 00:02:42;;;;;;;35.35;18.63;;;;;;;8.03;58.36;99059.31;5031187;28;20071;-37
2024/02/09 00:05:09;;;;;;;42.53;19.40;;;;;;;8.36;57.07;99056.66;5031612;28;20102;-37
2024/02/09 00:07:34;;;;;;;38.63;19.48;;;;;;;8.25;57.18;99054.63;5032167;28;20036;-38
2024/02/09 00:10:00;;;;;;;40.63;18.08;;;;;;;8.47;56.69;99055.22;5032107;28;20089;-39
2024/02/09 00:12:25;;;;;;;37.83;17.08;;;;;;;8.09;57.64;99055.88;5032043;28;20025;-39
2024/02/09 00:14:51;;;;;;;37.70;17.33;;;;;;;7.88;58.49;99054.22;5032123;28;20044;-39
2024/02/09 00:17:16;;;;;;;36.95;18.15;;;;;;;7.89;58.46;99058.50;5031822;28;20481;-39
2024/02/09 00:19:42;;;;;;;39.25;18.70;;;;;;;7.89;59.07;99053.19;5063848;28;20021;-39
2024/02/09 00:22:07;;;;;;;38.80;17.80;;;;;;;7.76;59.39;99045.22;5032201;28;20031;-26
2024/02/09 00:24:33;;;;;;;37.72;17.58;;;;;;;7.72;59.31;99044.81;5032517;28;20393;-28
2024/02/09 00:27:03;;;;;;;38.03;17.38;;;;;;;7.77;59.65;99037.09;5032092;28;20059;-26
2024/02/09 00:29:28;;;;;;;;;;;;;;;7.80;58.93;99036.66;5031673;28;20033;-27
2024/02/09 00:31:53;;;;;;;36.25;17.42;;;;;;;7.68;59.86;99035.66;5032315;28;19913;-26
2024/02/09 00:34:19;;;;;;;31.42;16.63;;;;;;;7.69;59.84;99033.81;5032564;28;20471;-40
2024/02/09 00:36:47;;;;;;;36.95;16.80;;;;;;;7.52;60.40;99034.19;5032343;28;20029;-41
2024/02/09 00:39:14;;;;;;;35.70;16.92;;;;;;;7.72;59.24;99031.56;5032003;28;20466;-40
2024/02/09 00:41:40;;;;;;;39.72;17.73;;;;;;;7.70;59.86;99038.91;5032263;28;20044;-38
2024/02/09 00:44:05;;;;;;;37.60;17.50;;;;;;;7.63;59.54;99040.72;5032193;28;20150;-38
2024/02/09 00:46:32;;;;;;;36.08;16.98;;;;;;;7.64;59.76;99040.53;5031740;28;20029;-36
2024/02/09 00:49:02;;;;;;;36.38;18.45;;;;;;;7.37;60.20;99036.22;5031330;28;20025;-40
2024/02/09 00:51:28;;;;;;;40.58;18.58;;;;;;;7.44;60.56;99042.31;5031217;28;20033;-39
2024/02/09 00:53:54;;;;;;;40.05;18.13;;;;;;;7.20;60.75;99028.63;5031213;28;20041;-40
2024/02/09 00:56:19;;;;;;;36.08;18.35;;;;;;;7.21;61.16;99037.38;5031818;28;20027;-40
2024/02/09 00:58:45;;;;;;;37.50;16.92;;;;;;;7.54;60.40;99041.91;5031328;28;20029;-40
2024/02/09 01:01:11;;;;;;;36.58;17.05;;;;;;;7.24;61.50;99044.91;5031141;28;20048;-40
2024/02/09 01:03:36;;;;;;;34.50;16.73;;;;;;;7.41;60.95;99040.09;5031176;28;20370;-40
2024/02/09 01:06:06;;;;;;;32.97;16.90;;;;;;;7.42;60.41;99044.34;5036345;28;20215;-39
2024/02/09 01:08:32;;;;;;;32.33;17.80;;;;;;;8.02;58.72;99042.59;5036471;28;20021;-27
2024/02/09 01:10:57;;;;;;;36.42;16.98;;;;;;;7.64;59.56;99039.72;5039179;28;20028;-27
2024/02/09 02:46:18;;;;;;;33.80;15.68;;;;;;;6.07;65.51;99010.34;5025020;28;20378;-40
2024/02/09 03:05:17;;;;;;;27.85;13.73;;;;;;;5.93;67.10;99050.00;5014249;28;20076;-40
2024/02/09 03:07:43;;;;;;;30.50;14.85;;;;;;;5.93;67.17;99058.75;5014187;28;20030;-40
2024/02/09 03:10:10;;;;;;;31.60;14.50;;;;;;;5.77;67.02;99057.19;5013795;28;20029;-40
2024/02/09 03:12:38;;;;;;;31.27;13.57;;;;;;;5.41;68.42;99054.59;5013907;28;20033;-40
2024/02/09 03:15:11;;;;;;;27.38;13.93;;;;;;;5.31;69.37;99056.69;5013934;28;20037;-40
2024/02/09 03:17:40;;;;;;;26.55;13.20;;;;;;;5.50;69.05;99066.66;5013327;28;20049;-40
2024/02/09 03:20:06;;;;;;;28.25;14.32;;;;;;;5.80;67.83;99067.34;5012890;28;20026;-39
2024/02/09 03:22:32;;;;;;;29.60;14.25;;;;;;;5.84;67.24;99065.97;5013614;28;20033;-40
2024/02/09 03:25:03;;;;;;;32.75;14.52;;;;;;;5.57;67.26;99072.81;5031620;28;20026;-39
2024/02/09 03:27:33;;;;;;;24.83;13.55;;;;;;;5.40;68.46;99074.88;5033174;28;20064;-40
2024/02/09 03:30:02;;;;;;;;;;;;;;;5.25;69.11;99074.09;5033896;28;20043;-40
2024/02/09 03:32:29;;;;;;;28.92;13.45;;;;;;;5.24;69.21;99062.72;5033549;28;20396;-40
2024/02/09 03:34:55;;;;;;;30.42;14.60;;;;;;;5.32;69.53;99075.00;5033398;28;20443;-40
2024/02/09 03:37:26;;;;;;;28.25;14.35;;;;;;;5.42;69.05;99074.69;5033280;28;20075;-41
2024/02/09 03:39:55;;;;;;;30.40;14.25;;;;;;;5.62;68.03;99070.44;5033367;28;20026;-40
2024/02/09 03:42:23;;;;;;;29.80;14.23;;;;;;;6.07;66.68;99081.66;5033225;28;20029;-40
2024/02/09 03:44:51;;;;;;;28.65;14.10;;;;;;;5.75;67.32;99077.69;5032992;28;20036;-40
2024/02/09 03:47:19;;;;;;;28.42;13.93;;;;;;;5.88;66.73;99095.47;5033194;28;20388;-39
2024/02/09 03:49:47;;;;;;;29.95;14.45;;;;;;;5.76;67.06;99089.88;5033101;28;20029;-40
2024/02/09 03:52:14;;;;;;;30.55;14.05;;;;;;;5.88;66.61;99085.72;5033179;28;20163;-40
2024/02/09 03:54:39;;;;;;;29.67;13.32;;;;;;;5.82;66.70;99098.84;5033142;28;20100;-40
2024/02/09 03:57:05;;;;;;;28.83;14.52;;;;;;;5.56;67.27;99086.19;5032890;28;20104;-40
2024/02/09 03:59:30;;;;;;;34.45;14.57;;;;;;;5.81;67.19;99100.69;5033060;28;20021;-26
2024/02/09 04:01:56;;;;;;;33.10;15.23;;;;;;;5.86;66.61;99108.88;5033676;28;20021;-41
2024/02/09 04:04:21;;;;;;;33.85;14.27;;;;;;;5.48;67.69;99117.00;5033424;28;20481;-27
2024/02/09 04:06:47;;;;;;;29.13;13.52;;;;;;;5.60;67.42;99106.78;5034208;28;20033;-27
2024/02/09 04:09:12;;;;;;;23.58;12.88;;;;;;;5.78;66.98;99106.34;5035302;28;20087;-32
2024/02/09 04:11:37;;;;;;;27.88;12.80;;;;;;;5.74;66.68;99091.06;5033744;28;20099;-27
2024/02/09 04:14:03;;;;;;;23.27;12.18;;;;;;;5.94;66.12;99107.94;5033036;28;20017;-39
2024/02/09 04:16:28;;;;;;;22.48;11.90;;;;;;;5.70;67.31;99103.81;5051196;28;20065;-27
2024/02/09 04:18:55;;;;;;;20.42;10.95;;;;;;;5.85;66.72;99107.22;5052046;28;20088;-27
2024/02/09 04:21:20;;;;;;;22.75;10.30;;;;;;;5.96;66.17;99097.19;5051995;28;20017;-26
2024/02/09 04:23:46;;;;;;;24.90;10.73;;;;;;;5.87;66.31;99104.41;5043741;28;20017;-27
2024/02/09 04:26:12;;;;;;;26.55;12.30;;;;;;;5.75;67.38;99106.72;5036902;28;20047;-26
2024/02/09 04:28:37;;;;;;;24.77;12.20;;;;;;;5.63;67.65;99097.66;5040209;28;20029;-26
2024/02/09 04:31:03;;;;;;;28.10;12.25;;;;;;;5.45;68.46;99100.72;5037462;28;20025;-26
2024/02/09 04:33:28;;;;;;;19.45;9.30;;;;;;;5.60;67.76;99093.56;5040726;28;20017;-26
2024/02/09 04:35:56;;;;;;;18.50;9.40;;;;;;;5.84;66.81;99095.00;5041541;28;20029;-26
2024/02/09 04:38:22;;;;;;;15.15;8.85;;;;;;;5.66;67.22;99094.66;5041063;28;20168;-26
2024/02/09 04:40:47;;;;;;;16.23;8.75;;;;;;;5.76;66.68;99087.22;5052074;28;20028;-26
2024/02/09 04:43:13;;;;;;;19.63;9.27;;;;;;;5.86;66.71;99087.75;5051967;28;20025;-25
2024/02/09 04:45:38;;;;;;;24.70;10.68;;;;;;;5.92;65.40;99093.25;5051790;28;20487;-25
2024/02/09 04:48:04;;;;;;;18.48;10.48;;;;;;;5.91;65.92;99103.00;5052228;28;20025;-25
2024/02/09 04:50:29;;;;;;;21.50;11.15;;;;;;;5.62;66.35;99098.66;5051944;28;20100;-26
2024/02/09 04:52:55;;;;;;;19.40;9.70;;;;;;;5.72;73.65;99090.44;5051682;28;20033;-25
2024/02/09 04:55:21;;;;;;;21.83;10.32;;;;;;;5.05;68.35;99085.22;5051685;28;20064;-26
2024/02/09 04:57:46;;;;;;;22.80;10.15;;;;;;;4.71;70.02;99098.97;5050680;28;20025;-25
2024/02/09 05:00:12;;;;;;;21.02;10.45;;;;;;;4.64;70.43;99098.84;5051744;28;20074;-25
2024/02/09 05:02:40;;;;;;;22.75;9.82;;;;;;;4.58;71.40;99098.78;5052267;28;20048;-43
2024/02/09 05:05:07;;;;;;;21.02;10.05;;;;;;;4.68;71.28;99107.22;5051922;28;20031;-41
2024/02/09 05:07:33;;;;;;;21.02;11.00;;;;;;;4.63;71.24;99113.03;5052129;28;20485;-38
2024/02/09 05:09:58;;;;;;;18.67;10.40;;;;;;;4.61;71.18;99112.41;5051879;28;20055;-40
2024/02/09 05:12:25;;;;;;;24.98;10.50;;;;;;;4.72;70.86;99120.84;5052377;28;20074;-41
2024/02/09 05:14:52;;;;;;;26.77;10.43;;;;;;;4.73;74.03;99119.88;5051932;28;20033;-38
2024/02/09 05:17:18;;;;;;;29.77;12.38;;;;;;;4.77;71.91;99127.22;5050830;28;20050;-39
2024/02/09 05:19:44;;;;;;;25.33;12.20;;;;;;;5.04;70.53;99124.97;5051634;28;20116;-40
2024/02/09 05:22:09;;;;;;;21.50;10.18;;;;;;;5.39;68.70;99143.69;5046274;28;20175;-40
2024/02/09 05:24:35;;;;;;;24.75;10.80;;;;;;;5.00;69.43;99140.31;5032247;28;20111;-41
2024/02/09 05:27:00;;;;;;;24.58;11.70;;;;;;;5.04;69.64;99148.69;5032075;28;20021;-39
2024/02/09 05:29:26;;;;;;;24.25;10.90;;;;;;;5.22;70.25;99137.78;5031453;28;20060;-41
2024/02/09 05:31:57;;;;;;;26.65;11.50;;;;;;;5.32;70.42;99156.78;5038400;28;20508;-38
2024/02/09 05:34:24;;;;;;;24.60;11.68;;;;;;;4.96;72.99;99151.44;5039873;28;20021;-40
2024/02/09 05:36:53;;;;;;;23.23;10.65;;;;;;;4.82;73.23;99153.06;5045462;28;20025;-38
2024/02/09 05:39:19;;;;;;;22.25;11.10;;;;;;;5.27;70.30;99161.78;5038927;28;20025;-39
2024/02/09 05:41:44;;;;;;;22.52;10.60;;;;;;;5.47;69.06;99170.78;5051118;28;20512;-27
2024/02/09 05:44:09;;;;;;;21.77;10.90;;;;;;;5.24;69.54;99170.09;5051024;28;20029;-26
2024/02/09 05:46:35;;;;;;;31.42;13.52;;;;;;;5.68;67.86;99180.56;5031116;28;20033;-27
2024/02/09 05:49:00;;;;;;;24.70;11.38;;;;;;;5.62;67.79;99170.75;5031232;28;20116;-27
2024/02/09 05:51:25;;;;;;;33.35;12.50;;;;;;;5.68;66.65;99171.84;5031020;28;20029;-27
2024/02/09 05:53:51;;;;;;;25.30;11.85;;;;;;;5.58;67.75;99176.56;5030648;28;20025;-27
2024/02/09 05:56:19;;;;;;;22.45;11.13;;;;;;;5.71;66.54;99183.84;5030573;28;20173;-26
2024/02/09 05:58:48;;;;;;;24.80;11.57;;;;;;;5.54;67.66;99176.16;5033820;28;20037;-28
2024/02/09 06:01:14;;;;;;;27.65;11.52;;;;;;;5.78;67.23;99185.53;5036760;28;20029;-27
2024/02/09 06:03:43;;;;;;;24.90;11.38;;;;;;;5.71;67.57;99192.56;5050769;28;20667;-27
2024/02/09 06:06:11;;;;;;;29.40;12.30;;;;;;;5.81;67.03;99201.03;5050998;28;20485;-27
2024/02/09 06:08:37;;;;;;;30.40;13.27;;;;;;;5.92;67.91;99202.38;5045362;28;20068;-27
2024/02/09 06:11:04;;;;;;;35.45;13.70;;;;;;;6.24;67.78;99211.69;5046624;28;20065;-27
2024/02/09 06:13:30;;;;;;;37.08;14.20;;;;;;;6.41;65.41;99203.50;5044663;28;20028;-26
2024/02/09 06:15:57;;;;;;;34.42;14.25;;;;;;;7.07;62.57;99207.69;5044214;28;20024;-27
2024/02/09 06:18:27;;;;;;;37.80;14.93;;;;;;;7.06;62.05;99206.84;5048092;28;20461;-26
2024/02/09 06:20:53;;;;;;;39.00;16.23;;;;;;;7.65;60.32;99218.78;5023724;28;20038;-26
2024/02/09 06:23:21;;;;;;;43.33;14.70;;;;;;;8.99;56.93;99215.38;5036464;28;20075;-26
2024/02/09 06:25:49;;;;;;;34.83;13.73;;;;;;;9.17;55.03;99217.38;5032836;28;20048;-27
2024/02/09 06:28:16;;;;;;;45.40;14.45;;;;;;;9.34;54.75;99223.06;5041015;28;20057;-29
2024/02/09 06:30:42;;;;;;;33.92;14.07;;;;;;;8.85;56.04;99208.41;5033930;28;20033;-27
2024/02/09 06:33:08;;;;;;;38.40;14.43;;;;;;;8.52;56.92;99208.44;5045809;28;20021;-28
2024/02/09 06:35:34;;;;;;;36.00;13.70;;;;;;;8.74;56.61;99209.06;5040991;28;20401;-43
2024/02/09 06:37:59;;;;;;;31.40;13.25;;;;;;;9.11;55.71;99207.59;5035195;28;20044;-40
2024/02/09 06:40:24;;;;;;;27.90;11.98;;;;;;;9.44;54.43;99200.56;5038316;28;20095;-43
2024/02/09 06:42:50;;;;;;;32.92;12.40;;;;;;;9.64;54.21;99203.16;5044782;28;20029;-41
2024/02/09 06:45:16;;;;;;;29.67;13.60;;;;;;;9.94;53.54;99198.13;5036256;28;20029;-42
2024/02/09 06:47:42;;;;;;;46.97;20.25;;;;;;;10.18;53.28;99199.19;5034647;28;20033;-39
2024/02/09 06:50:10;;;;;;;25.10;11.43;;;;;;;10.65;51.51;99197.06;5033995;28;20013;-39
2024/02/09 06:52:37;;;;;;;28.40;11.90;;;;;;;10.87;50.26;99186.84;5036577;28;20020;-40
2024/02/09 06:55:07;;;;;;;20.05;11.80;;;;;;;10.88;50.14;99193.78;5038386;28;20029;-38
2024/02/09 06:57:33;;;;;;;35.22;17.88;;;;;;;11.03;48.70;99182.00;5035106;28;20104;-26
2024/02/09 06:59:58;;;;;;;21.38;10.45;;;;;;;11.50;49.36;99177.81;5037711;28;20449;-27
2024/02/09 07:02:24;;;;;;;15.43;9.10;;;;;;;11.86;48.78;99177.97;5039800;28;20107;-39
2024/02/09 07:05:00;;;;;;;22.45;10.48;;;;;;;12.20;46.43;99179.16;5033774;28;20026;-42
2024/02/09 07:07:28;;;;;;;19.45;10.65;;;;;;;12.45;46.07;99179.00;5031819;28;20021;-42
2024/02/09 07:09:54;;;;;;;20.85;10.88;;;;;;;12.24;47.27;99172.34;5020853;28;20095;-41
2024/02/09 07:12:19;;;;;;;17.17;8.95;;;;;;;12.46;46.04;99167.28;5023499;28;20426;-42
2024/02/09 07:14:44;;;;;;;20.48;9.90;;;;;;;12.66;44.82;99171.47;5031365;28;20033;-39
2024/02/09 07:17:10;;;;;;;16.48;9.38;;;;;;;13.23;43.26;99166.38;5033435;28;20046;-39
2024/02/09 07:19:35;;;;;;;20.25;9.90;;;;;;;13.18;43.27;99162.78;5032354;28;20123;-41
2024/02/09 07:22:01;;;;;;;24.15;9.43;;;;;;;13.42;42.51;99150.19;5033344;28;20025;-37
2024/02/09 07:24:27;;;;;;;23.02;9.40;;;;;;;14.38;40.48;99153.03;5033211;28;20013;-39
2024/02/09 07:26:52;;;;;;;24.25;9.15;;;;;;;15.50;39.38;99160.25;5033224;28;20592;-39
2024/02/09 07:29:17;;;;;;;20.38;9.45;;;;;;;16.28;36.94;99152.81;5033142;28;20020;-38
2024/02/09 07:31:43;;;;;;;21.60;9.52;;;;;;;17.03;35.32;99162.78;5033203;28;20057;-39
2024/02/09 07:34:11;;;;;;;29.00;13.70;;;;;;;17.15;35.18;99161.50;5032879;28;20523;-40
2024/02/09 07:36:38;;;;;;;21.15;11.25;;;;;;;17.74;34.54;99154.19;5033046;28;20022;-39
2024/02/09 07:39:04;;;;;;;20.52;9.98;;;;;;;17.45;33.65;99157.31;5024459;28;20065;-37
2024/02/09 07:41:30;;;;;;;17.88;9.38;;;;;;;17.19;34.28;99159.09;5018466;28;20025;-40
2024/02/09 07:43:56;;;;;;;22.38;9.90;;;;;;;17.55;33.86;99159.25;5033205;28;20033;-44
2024/02/09 07:46:21;;;;;;;16.73;7.88;;;;;;;18.23;32.45;99152.97;5031492;28;20354;-41
2024/02/09 07:48:47;;;;;;;22.77;8.55;;;;;;;18.43;32.42;99158.38;5033135;28;20480;-38
2024/02/09 07:51:16;;;;;;;16.02;8.07;;;;;;;18.06;32.39;99148.66;5032881;28;20021;-39
2024/02/09 07:53:41;;;;;;;18.90;7.75;;;;;;;19.05;31.30;99155.63;5032653;28;20032;-40
2024/02/09 07:56:07;;;;;;;19.38;7.20;;;;;;;19.59;30.53;99156.78;5032930;28;20026;-36
2024/02/09 07:58:32;;;;;;;13.68;7.32;;;;;;;19.70;30.15;99150.25;5032842;28;20110;-39
2024/02/09 08:00:58;;;;;;;13.48;7.75;;;;;;;20.30;29.70;99153.69;5032743;28;20033;-39
2024/02/09 08:03:23;;;;;;;18.90;8.73;;;;;;;20.70;28.59;99164.47;5032348;28;20037;-37
2024/02/09 08:05:49;;;;;;;20.98;8.73;;;;;;;20.79;28.83;99161.94;5032695;28;20053;-40
2024/02/09 08:08:14;;;;;;;16.83;9.43;;;;;;;20.81;28.48;99155.19;5032813;28;20053;-41
2024/02/09 08:10:40;;;;;;;23.38;10.07;;;;;;;21.18;28.42;99159.13;5032783;28;20447;-43
2024/02/09 08:13:06;;;;;;;18.92;9.48;;;;;;;20.76;31.06;99157.94;5031750;28;20533;-39
2024/02/09 08:15:32;;;;;;;20.70;10.52;;;;;;;21.31;28.95;99162.25;5040417;28;20100;-40
2024/02/09 08:17:57;;;;;;;22.73;10.85;;;;;;;21.41;27.88;99149.38;5041155;28;20411;-42
2024/02/09 08:20:26;;;;;;;22.15;10.18;;;;;;;21.71;28.08;99143.91;5043346;28;20033;-39
2024/02/09 08:22:53;;;;;;;18.35;8.70;;;;;;;22.17;30.69;99154.06;5039170;28;20025;-36
2024/02/09 08:25:19;;;;;;;20.00;9.57;;;;;;;22.21;27.30;99152.38;5041435;28;20064;-38
2024/02/09 08:27:45;;;;;;;14.48;8.68;;;;;;;21.87;26.92;99156.13;5037474;28;20017;-41
2024/02/09 08:30:12;;;;;;;13.00;7.70;;;;;;;21.95;28.49;99166.31;5040754;28;20114;-40
2024/02/09 08:32:39;;;;;;;15.30;7.70;;;;;;;22.49;28.36;99164.16;5037426;28;20049;-40
2024/02/09 08:35:05;;;;;;;14.90;7.80;;;;;;;21.97;27.83;99163.28;5022075;28;20478;-37
2024/02/09 08:37:30;;;;;;;16.65;8.40;;;;;;;21.06;28.39;99159.53;5028723;28;20087;-40
2024/02/09 08:39:57;;;;;;;15.73;7.88;;;;;;;21.23;30.39;99153.66;5038341;28;20021;-40
2024/02/09 08:42:23;;;;;;;15.52;8.50;;;;;;;21.89;27.16;99150.41;5043263;28;20021;-41
2024/02/09 08:44:48;;;;;;;17.30;8.68;;;;;;;22.33;28.16;99143.81;5037781;28;20029;-41
2024/02/09 08:47:14;;;;;;;16.85;8.77;;;;;;;22.01;27.17;99129.91;5035383;28;20037;-42
2024/02/09 08:49:39;;;;;;;17.02;8.48;;;;;;;22.51;27.96;99134.06;5043114;28;20021;-37
2024/02/09 08:52:05;;;;;;;19.35;8.18;;;;;;;22.68;26.22;99138.91;5038220;28;20037;-39
2024/02/09 08:54:32;;;;;;;14.13;8.75;;;;;;;21.14;29.23;99144.56;5031156;28;20076;-40
2024/02/09 08:56:58;;;;;;;19.58;8.40;;;;;;;22.05;26.99;99141.78;5030167;28;20065;-39
2024/02/09 08:59:23;;;;;;;13.40;7.70;;;;;;;22.27;27.11;99124.13;5030463;28;20061;-40
2024/02/09 09:01:49;;;;;;;19.88;9.38;;;;;;;22.62;27.33;99132.78;5030847;28;20021;-40
2024/02/09 09:04:14;;;;;;;19.13;9.57;;;;;;;23.21;25.38;99128.44;5032662;28;20477;-27
2024/02/09 09:06:40;;;;;;;20.23;10.10;;;;;;;23.74;24.67;99129.78;5041834;28;20032;-28
2024/02/09 09:09:07;;;;;;;17.45;9.30;;;;;;;23.90;24.40;99122.09;5031978;28;20033;-28
2024/02/09 09:11:33;;;;;;;16.52;8.20;;;;;;;23.66;24.58;99114.19;5032065;28;20222;-29
2024/02/09 09:14:00;;;;;;;13.65;7.75;;;;;;;23.70;25.47;99123.31;5031765;28;20110;-29
2024/02/09 09:16:26;;;;;;;17.95;8.55;;;;;;;23.31;25.20;99115.75;5031736;28;20453;-28
2024/02/09 09:18:51;;;;;;;16.10;8.02;;;;;;;22.91;25.43;99107.28;5031278;28;20057;-28
2024/02/09 09:21:17;;;;;;;13.55;8.13;;;;;;;23.18;25.43;99104.59;5031290;28;20500;-28
2024/02/09 09:23:42;;;;;;;16.48;8.15;;;;;;;22.46;26.17;99105.09;5031419;28;20064;-28
2024/02/09 09:26:08;;;;;;;17.15;8.02;;;;;;;22.86;25.04;99099.25;5031056;28;20030;-27
2024/02/09 09:28:34;;;;;;;15.30;8.18;;;;;;;22.95;25.23;99090.09;5030627;28;20025;-29
2024/02/09 09:30:59;;;;;;;13.90;7.50;;;;;;;22.37;25.42;99091.44;5031292;28;20048;-27
2024/02/09 09:33:25;;;;;;;15.48;7.45;;;;;;;22.67;25.37;99083.06;5031271;28;20464;-27
2024/02/09 09:35:52;;;;;;;15.00;7.80;;;;;;;22.79;25.10;99084.19;5031163;28;20484;-28
2024/02/09 09:38:18;;;;;;;19.50;8.15;;;;;;;22.58;25.18;99080.22;5031544;28;20033;-28
2024/02/09 09:40:48;;;;;;;16.27;8.00;;;;;;;23.09;24.90;99078.47;5031223;28;20413;-26
2024/02/09 09:43:17;;;;;;;17.50;7.25;;;;;;;23.78;24.50;99073.75;5030542;28;20026;-28
2024/02/09 09:45:43;;;;;;;19.08;7.38;;;;;;;24.17;24.04;99068.75;5031170;28;20033;-27
2024/02/09 09:48:14;;;;;;;14.48;7.28;;;;;;;23.75;24.17;99068.09;5031352;28;20033;-27
2024/02/09 09:50:40;;;;;;;19.88;7.13;;;;;;;23.33;24.50;99064.69;5030778;28;20022;-28
2024/02/09 09:53:16;;;;;;;12.00;6.28;;;;;;;23.86;24.40;99061.34;5029532;28;20034;-27
2024/02/09 09:55:43;;;;;;;15.35;7.10;;;;;;;24.16;23.51;99067.13;5031050;28;20018;-27
2024/02/09 09:58:10;;;;;;;12.38;6.53;;;;;;;23.90;23.98;99053.38;5030744;28;20025;-26
2024/02/09 10:00:35;;;;;;;12.10;7.13;;;;;;;24.05;24.14;99055.72;5030920;28;20022;-29
2024/02/09 10:03:04;;;;;;;19.33;9.52;;;;;;;24.11;23.60;99059.91;5031233;28;20031;-29
2024/02/09 10:05:30;;;;;;;12.48;7.80;;;;;;;23.47;24.72;99057.31;5031018;28;20028;-29
2024/02/09 10:07:57;;;;;;;17.08;8.25;;;;;;;23.62;25.36;99062.38;5030378;28;20108;-27
2024/02/09 10:10:24;;;;;;;10.93;6.82;;;;;;;24.14;24.15;99051.16;5030730;28;20121;-28
2024/02/09 10:13:03;;;;;;;19.48;6.82;;;;;;;24.30;24.10;99042.59;5030691;28;20108;-28
2024/02/09 10:15:29;;;;;;;16.60;6.97;;;;;;;24.53;23.65;99033.31;5030708;28;20120;-28
2024/02/09 10:17:56;;;;;;;12.02;6.05;;;;;;;24.94;23.56;99021.31;5030411;28;20288;-26
2024/02/09 10:20:22;;;;;;;11.50;6.55;;;;;;;25.39;23.02;99014.81;5030644;28;20374;-28
2024/02/09 10:22:47;;;;;;;12.80;6.22;;;;;;;25.71;22.54;99005.38;5030737;28;20022;-27
2024/02/09 10:25:14;;;;;;;13.57;5.93;;;;;;;25.41;22.73;99009.84;5031080;28;20033;-27
2024/02/09 10:27:42;;;;;;;13.82;6.22;;;;;;;25.20;22.56;98996.03;5030544;28;20025;-28
2024/02/09 10:30:08;;;;;;;15.63;6.85;;;;;;;24.01;23.70;98994.97;5030578;28;20071;-28
2024/02/09 10:32:34;;;;;;;11.68;6.80;;;;;;;24.04;23.62;98993.53;5030592;28;20020;-29
2024/02/09 10:34:59;;;;;;;12.80;6.72;;;;;;;23.74;23.82;98983.09;5030569;28;20021;-30
2024/02/09 10:37:25;;;;;;;13.95;6.55;;;;;;;23.08;24.66;98982.72;5030318;28;20095;-29
2024/02/09 10:39:50;;;;;;;12.27;6.57;;;;;;;22.86;24.85;98979.91;5030688;28;20034;-27
2024/02/09 10:42:21;;;;;;;13.88;6.60;;;;;;;23.20;25.38;98982.97;5030490;28;20369;-28
2024/02/09 10:44:49;;;;;;;13.95;6.07;;;;;;;23.70;24.23;98968.50;5030749;28;20022;-28
2024/02/09 10:47:16;;;;;;;13.65;5.78;;;;;;;23.99;24.61;98959.94;5030562;28;20083;-29
2024/02/09 10:49:44;;;;;;;11.20;5.97;;;;;;;24.17;23.85;98962.75;5030625;28;20048;-28
2024/02/09 10:52:11;;;;;;;11.15;5.72;;;;;;;22.60;25.22;98950.63;5030464;28;20033;-28
2024/02/09 10:54:45;;;;;;;9.32;5.90;;;;;;;22.91;25.24;98947.25;5030556;28;20033;-27
2024/02/09 10:57:11;;;;;;;10.57;5.93;;;;;;;23.37;24.66;98935.38;5034118;28;20022;-28
2024/02/09 10:59:40;;;;;;;14.50;6.13;;;;;;;23.69;24.63;98937.06;5033612;28;20027;-27
2024/02/09 11:02:07;;;;;;;11.07;5.13;;;;;;;23.36;24.76;98934.59;5033942;28;20029;-28
2024/02/09 11:04:34;;;;;;;11.00;5.38;;;;;;;23.37;24.45;98933.47;5033094;28;20035;-27
2024/02/09 11:07:01;;;;;;;11.65;5.00;;;;;;;23.18;24.56;98920.06;5033852;28;20029;-27
2024/02/09 11:09:26;;;;;;;10.02;6.07;;;;;;;23.26;24.63;98912.31;5033742;28;20033;-27
2024/02/09 11:11:53;;;;;;;14.00;6.30;;;;;;;23.52;24.87;98920.66;5034046;28;20024;-27
2024/02/09 11:14:28;;;;;;;10.80;6.32;;;;;;;23.54;24.69;98926.56;5033939;28;20068;-28
2024/02/09 11:16:54;;;;;;;18.15;5.28;;;;;;;23.59;25.02;98916.38;5033384;28;20025;-28
2024/02/09 11:19:21;;;;;;;12.52;5.85;;;;;;;23.42;25.07;98927.13;5033716;28;20097;-30
2024/02/09 11:21:57;;;;;;;13.35;5.75;;;;;;;23.34;24.86;98917.81;5033649;28;20412;-27
2024/02/09 11:24:27;;;;;;;11.30;5.75;;;;;;;22.90;25.53;98916.59;5033497;28;20413;-29
2024/02/09 11:26:55;;;;;;;10.00;5.05;;;;;;;21.80;26.42;98910.06;5033604;28;20101;-29
2024/02/09 11:29:22;;;;;;;8.38;5.03;;;;;;;22.04;26.45;98914.53;5032897;28;20547;-28
2024/02/09 11:31:50;;;;;;;12.48;4.75;;;;;;;22.50;25.77;98902.81;5033318;28;20026;-29
2024/02/09 11:34:26;;;;;;;11.18;5.20;;;;;;;22.87;25.77;98900.16;5033418;28;20108;-30
2024/02/09 11:36:53;;;;;;;8.65;5.55;;;;;;;23.23;25.58;98902.88;5033394;28;20099;-28
2024/02/09 11:39:22;;;;;;;17.13;5.63;;;;;;;23.64;25.21;98910.00;5032820;28;20029;-28
2024/02/09 11:41:49;;;;;;;8.32;5.40;;;;;;;23.93;24.74;98906.03;5032951;28;20025;-29
2024/02/09 11:44:14;;;;;;;7.38;4.45;;;;;;;23.59;24.78;98896.59;5033336;28;20512;-29
2024/02/09 11:46:41;;;;;;;10.13;4.80;;;;;;;23.24;25.06;98885.47;5032788;28;20029;-28
2024/02/09 11:49:07;;;;;;;8.00;4.10;;;;;;;23.39;24.51;98878.88;5033024;28;20037;-29
2024/02/09 11:51:35;;;;;;;7.68;4.07;;;;;;;22.98;24.99;98891.47;5033013;28;20024;-28
2024/02/09 11:54:03;;;;;;;7.18;4.38;;;;;;;22.79;25.23;98882.66;5032995;28;20030;-27
2024/02/09 11:56:30;;;;;;;10.07;4.60;;;;;;;22.11;25.99;98882.44;5032855;28;20083;-28
2024/02/09 11:58:56;;;;;;;10.80;4.90;;;;;;;21.90;26.52;98864.97;5032829;28;20033;-29
2024/02/09 12:01:23;;;;;;;9.50;4.70;;;;;;;22.68;25.84;98867.75;5032789;28;20022;-30
2024/02/09 12:03:50;;;;;;;9.82;4.60;;;;;;;22.78;25.55;98872.94;5032462;28;20032;-29
2024/02/09 12:06:16;;;;;;;10.30;4.78;;;;;;;23.15;25.66;98868.31;5032295;28;20145;-27
2024/02/09 12:08:41;;;;;;;10.32;4.70;;;;;;;23.70;24.73;98862.59;5032313;28;20067;-29
2024/02/09 12:11:06;;;;;;;9.90;4.57;;;;;;;23.55;24.73;98857.56;5030821;28;20176;-31
2024/02/09 12:13:32;;;;;;;11.32;4.47;;;;;;;22.67;25.79;98849.88;5032495;28;20040;-28
2024/02/09 12:15:58;;;;;;;7.55;4.40;;;;;;;22.11;26.31;98846.41;5032328;28;20397;-28
2024/02/09 12:18:25;;;;;;;7.45;4.20;;;;;;;22.53;26.15;98839.06;5032132;28;20132;-29
2024/02/09 12:20:53;;;;;;;8.18;4.20;;;;;;;23.05;25.41;98825.16;5032602;28;20025;-27
2024/02/09 12:23:19;;;;;;;11.15;4.20;;;;;;;23.59;25.09;98834.13;5032484;28;20021;-29
2024/02/09 12:25:44;;;;;;;7.30;4.05;;;;;;;23.61;24.38;98821.84;5032656;28;20040;-28
2024/02/09 12:28:19;;;;;;;8.48;4.13;;;;;;;22.80;25.35;98808.34;5032382;28;20033;-26
2024/02/09 12:30:45;;;;;;;9.85;4.55;;;;;;;22.96;25.28;98815.03;5032296;28;20026;-28
2024/02/09 12:33:11;;;;;;;7.65;4.00;;;;;;;23.01;25.00;98804.03;5032135;28;20034;-27
2024/02/09 12:35:37;;;;;;;7.15;3.83;;;;;;;22.43;25.83;98792.09;5031924;28;20035;-28
2024/02/09 12:38:03;;;;;;;6.15;3.78;;;;;;;22.31;25.62;98799.13;5032149;28;20036;-29
2024/02/09 12:40:29;;;;;;;8.98;4.20;;;;;;;22.05;26.04;98803.16;5031552;28;20037;-28
2024/02/09 12:42:55;;;;;;;7.00;4.15;;;;;;;21.97;26.68;98801.16;5031960;28;20037;-26
2024/02/09 12:45:28;;;;;;;8.90;4.20;;;;;;;21.84;26.61;98791.94;5031939;28;20060;-27
2024/02/09 12:47:54;;;;;;;8.43;4.22;;;;;;;22.31;25.91;98777.47;5032070;28;20035;-28
2024/02/09 12:50:20;;;;;;;9.85;4.13;;;;;;;22.61;25.96;98790.31;5031842;28;20101;-29
2024/02/09 12:52:49;;;;;;;9.63;4.60;;;;;;;22.24;25.95;98783.28;5031810;28;20037;-26
2024/02/09 12:55:17;;;;;;;7.15;4.25;;;;;;;22.32;26.24;98779.88;5031561;28;20033;-28
2024/02/09 12:57:43;;;;;;;7.88;4.55;;;;;;;22.53;25.75;98780.22;5031828;28;20505;-30
2024/02/09 13:00:09;;;;;;;11.63;4.72;;;;;;;22.39;25.94;98774.03;5031364;28;20044;-29
2024/02/09 13:02:34;;;;;;;10.15;4.95;;;;;;;22.28;26.28;98778.09;5031459;28;20022;-29
2024/02/09 13:05:00;;;;;;;8.52;4.90;;;;;;;22.09;26.43;98765.44;5031316;28;20106;-28
2024/02/09 13:07:27;;;;;;;10.15;5.00;;;;;;;21.96;26.42;98774.38;5031668;28;20063;-28
2024/02/09 13:09:55;;;;;;;10.27;4.75;;;;;;;22.31;26.15;98764.72;5031516;28;20013;-27
2024/02/09 13:12:21;;;;;;;8.48;4.68;;;;;;;22.82;25.88;98760.03;5031338;28;20025;-28